createdAt,value
2018-06-02T00:02:57.028Z,97368.67
2018-06-02T00:07:50.311Z,97372.12
2018-06-02T00:12:44.370Z,97369.86
2018-06-02T00:17:37.661Z,97371.77
2018-06-02T00:22:30.949Z,97380.52
2018-06-02T00:27:24.256Z,97373.02
2018-06-02T00:32:18.309Z,97369.31
2018-06-02T00:37:11.604Z,97372.88
2018-06-02T00:42:04.900Z,97363.33
2018-06-02T00:46:58.195Z,97364.13
2018-06-02T00:51:52.250Z,97358.89
2018-06-02T00:56:45.539Z,97366.97
2018-06-02T01:01:38.900Z,97370.33
2018-06-02T01:06:32.171Z,97365.71
2018-06-02T01:11:25.464Z,97365.54
2018-06-02T01:16:18.774Z,97362.20
2018-06-02T01:21:12.899Z,97366.38
2018-06-02T01:26:06.200Z,97365.03
2018-06-02T01:30:59.491Z,97371.29
2018-06-02T01:35:52.831Z,97372.02
2018-06-02T01:40:46.122Z,97366.56
2018-06-02T01:45:39.420Z,97368.53
2018-06-02T01:50:32.723Z,97359.38
2018-06-02T01:55:26.769Z,97367.95
2018-06-02T02:00:20.053Z,97365.84
2018-06-02T02:05:13.348Z,97365.00
2018-06-02T02:10:06.633Z,97361.18
2018-06-02T02:14:59.924Z,97364.14
2018-06-02T02:19:53.970Z,97368.08
2018-06-02T02:24:47.279Z,97357.71
2018-06-02T02:29:40.544Z,97362.42
2018-06-02T02:34:33.835Z,97363.80
2018-06-02T02:39:27.127Z,97363.39
2018-06-02T02:44:21.181Z,97368.36
2018-06-02T02:49:14.477Z,97365.05
2018-06-02T02:54:07.798Z,97376.00
2018-06-02T02:59:01.097Z,97371.95
2018-06-02T03:03:54.399Z,97377.81
2018-06-02T03:08:47.688Z,97375.81
2018-06-02T03:13:40.994Z,97371.42
2018-06-02T03:18:35.042Z,97379.92
2018-06-02T03:23:28.331Z,97381.03
2018-06-02T03:28:21.643Z,97380.52
2018-06-02T03:33:14.962Z,97382.91
2018-06-02T03:38:08.255Z,97384.39
2018-06-02T03:43:01.547Z,97390.17
2018-06-02T03:47:54.846Z,97381.81
2018-06-02T03:52:48.896Z,97393.27
2018-06-02T03:57:42.190Z,97392.17
2018-06-02T04:02:35.486Z,97395.73
2018-06-02T04:07:29.556Z,97394.34
2018-06-02T04:12:22.838Z,97397.55
2018-06-02T04:17:16.122Z,97392.73
2018-06-02T04:22:09.422Z,97391.05
2018-06-02T04:27:02.735Z,97391.50
2018-06-02T04:31:56.024Z,97396.30
2018-06-02T04:36:49.318Z,97394.59
2018-06-02T04:41:42.624Z,97404.81
2018-06-02T04:46:36.683Z,97414.06
2018-06-02T04:51:29.954Z,97407.91
2018-06-02T04:56:23.242Z,97413.84
2018-06-02T05:01:16.530Z,97409.56
2018-06-02T05:06:09.832Z,97411.81
2018-06-02T05:11:03.894Z,97406.59
2018-06-02T05:15:57.191Z,97408.46
2018-06-02T05:20:51.251Z,97404.53
2018-06-02T05:25:44.548Z,97411.68
2018-06-02T05:30:37.834Z,97409.15
2018-06-02T05:35:31.891Z,97405.23
2018-06-02T05:40:25.228Z,97398.81
2018-06-02T05:45:18.476Z,97396.70
2018-06-02T05:50:11.759Z,97398.12
2018-06-02T05:55:07.501Z,97390.25
2018-06-02T06:00:01.574Z,97395.91
2018-06-02T06:04:54.849Z,97397.93
2018-06-02T06:53:11.884Z,97396.82
2018-06-02T06:58:05.195Z,97395.72
2018-06-02T07:02:58.479Z,97392.56
2018-06-02T07:07:51.810Z,97393.91
2018-06-02T07:12:45.106Z,97387.70
2018-06-02T07:17:39.159Z,97384.20
2018-06-02T07:22:32.445Z,97386.03
2018-06-02T07:27:25.738Z,97392.70
2018-06-02T07:32:19.035Z,97399.27
2018-06-02T07:37:13.111Z,97392.59
2018-06-02T07:42:06.403Z,97393.21
2018-06-02T07:46:59.708Z,97389.23
2018-06-02T07:51:52.994Z,97389.20
2018-06-02T07:56:47.062Z,97380.48
2018-06-02T08:01:41.118Z,97381.41
2018-06-02T08:06:34.408Z,97383.64
2018-06-02T08:11:27.685Z,97379.45
2018-06-02T08:16:20.976Z,97378.21
2018-06-02T08:21:15.138Z,97372.30
2018-06-02T08:26:08.433Z,97382.80
2018-06-02T08:31:01.723Z,97386.36
2018-06-02T08:35:55.786Z,97381.34
2018-06-02T08:40:49.083Z,97386.80
2018-06-02T08:45:42.390Z,97389.24
2018-06-02T08:50:35.692Z,97380.95
2018-06-02T08:55:28.987Z,97375.02
2018-06-02T09:00:22.295Z,97384.69
2018-06-02T09:05:15.574Z,97388.86
2018-06-02T09:10:09.636Z,97384.70
2018-06-02T09:15:02.948Z,97384.39
2018-06-02T09:19:57.082Z,97375.80
2018-06-02T09:24:50.380Z,97375.65
2018-06-02T09:29:43.696Z,97368.83
2018-06-02T09:34:37.763Z,97363.81
2018-06-02T09:39:31.046Z,97362.04
2018-06-02T09:44:24.340Z,97354.82
2018-06-02T09:49:18.414Z,97358.04
2018-06-02T09:54:11.722Z,97353.77
2018-06-02T09:59:05.784Z,97342.27
2018-06-02T10:03:59.080Z,97341.69
2018-06-02T10:08:52.390Z,97338.30
2018-06-02T10:13:45.703Z,97340.91
2018-06-02T10:18:38.995Z,97334.13
2018-06-02T10:23:32.295Z,97337.98
2018-06-02T10:28:26.375Z,97331.73
2018-06-02T10:33:19.657Z,97329.10
2018-06-02T10:38:12.956Z,97324.77
2018-06-02T10:43:07.040Z,97322.04
2018-06-02T10:48:01.104Z,97321.38
2018-06-02T10:52:54.435Z,97315.96
2018-06-02T10:57:47.725Z,97317.26
2018-06-02T11:02:41.797Z,97313.79
2018-06-02T11:07:35.868Z,97300.48
2018-06-02T11:12:29.168Z,97300.23
2018-06-02T11:17:23.230Z,97301.56
2018-06-02T11:22:16.517Z,97293.45
2018-06-02T11:27:09.834Z,97285.89
2018-06-02T11:32:03.153Z,97275.75
2018-06-02T11:36:56.451Z,97262.20
2018-06-02T11:41:49.765Z,97255.81
2018-06-02T11:46:43.038Z,97255.65
2018-06-02T11:51:36.347Z,97243.09
2018-06-02T11:56:29.650Z,97242.91
2018-06-02T12:01:22.960Z,97238.16
2018-06-02T12:06:17.035Z,97241.29
2018-06-02T12:11:10.406Z,97227.74
2018-06-02T12:16:04.498Z,97218.63
2018-06-02T12:20:57.794Z,97216.19
2018-06-02T12:25:51.856Z,97210.12
2018-06-02T12:30:45.153Z,97199.20
2018-06-02T12:35:38.614Z,97197.69
2018-06-02T12:40:31.921Z,97193.34
2018-06-02T12:45:25.992Z,97187.63
2018-06-02T12:50:19.309Z,97187.17
2018-06-02T12:55:13.362Z,97183.79
2018-06-02T13:00:06.673Z,97177.75
2018-06-02T13:05:00.722Z,97177.25
2018-06-02T13:09:54.019Z,97168.17
2018-06-02T13:14:47.318Z,97155.92
2018-06-02T13:19:40.636Z,97149.84
2018-06-02T13:24:34.694Z,97152.16
2018-06-02T13:29:28.751Z,97140.64
2018-06-02T13:34:22.103Z,97142.91
2018-06-02T13:39:15.404Z,97137.88
2018-06-02T13:44:08.710Z,97130.75
2018-06-02T13:49:02.782Z,97132.09
2018-06-02T13:53:56.080Z,97129.15
2018-06-02T13:58:50.155Z,97114.28
2018-06-02T14:03:43.451Z,97111.23
2018-06-02T14:08:36.747Z,97105.55
2018-06-02T14:13:30.827Z,97098.47
2018-06-02T14:18:24.875Z,97093.14
2018-06-02T14:23:18.176Z,97098.36
2018-06-02T14:28:13.303Z,97097.44
2018-06-02T14:33:06.611Z,97099.89
2018-06-02T14:38:00.724Z,97107.50
2018-06-02T14:42:55.724Z,97098.73
2018-06-02T14:47:49.786Z,97103.23
2018-06-02T14:52:43.078Z,97092.77
2018-06-02T14:57:37.135Z,97092.47
2018-06-02T15:02:31.641Z,97099.01
2018-06-02T15:07:24.938Z,97089.34
2018-06-02T15:12:18.230Z,97073.73
2018-06-02T15:17:12.296Z,97086.70
2018-06-02T15:22:05.582Z,97086.58
2018-06-02T15:26:58.893Z,97084.69
2018-06-02T15:31:52.932Z,97080.08
2018-06-02T15:36:46.226Z,97075.95
2018-06-02T15:41:39.519Z,97078.12
2018-06-02T15:46:32.803Z,97068.03
2018-06-02T15:51:26.091Z,97058.91
2018-06-02T15:56:20.155Z,97063.14
2018-06-02T16:01:13.452Z,97060.31
2018-06-02T16:06:07.507Z,97051.59
2018-06-02T16:11:00.808Z,97046.06
2018-06-02T16:15:54.099Z,97049.69
2018-06-02T16:20:48.160Z,97045.70
2018-06-02T16:25:41.475Z,97050.51
2018-06-02T16:30:35.545Z,97052.97
2018-06-02T16:35:28.822Z,97048.25
2018-06-02T16:40:22.127Z,97045.50
2018-06-02T16:45:16.192Z,97041.30
2018-06-02T16:50:09.482Z,97043.73
2018-06-02T16:55:02.786Z,97039.97
2018-06-02T16:59:56.098Z,97047.73
2018-06-02T17:04:49.415Z,97048.30
2018-06-02T17:09:42.727Z,97050.28
2018-06-02T17:14:36.029Z,97050.73
2018-06-02T17:19:29.315Z,97053.68
2018-06-02T17:24:22.611Z,97047.52
2018-06-02T17:29:15.898Z,97050.98
2018-06-02T17:34:09.966Z,97055.92
2018-06-02T17:39:03.276Z,97052.90
2018-06-02T17:43:56.572Z,97053.72
2018-06-02T17:48:49.885Z,97062.50
2018-06-02T17:53:43.174Z,97052.41
2018-06-02T17:58:36.467Z,97056.25
2018-06-02T18:03:29.794Z,97054.89
2018-06-02T18:08:23.102Z,97062.24
2018-06-02T18:13:16.408Z,97060.36
2018-06-02T18:18:09.718Z,97062.21
2018-06-02T18:23:03.034Z,97067.06
2018-06-02T18:27:56.339Z,97064.98
2018-06-02T18:32:49.632Z,97067.70
2018-06-02T18:37:43.698Z,97077.84
2018-06-02T18:42:37.014Z,97084.98
2018-06-02T18:47:30.316Z,97090.00
2018-06-02T18:52:23.615Z,97089.88
2018-06-02T18:57:16.910Z,97097.24
2018-06-02T19:02:10.201Z,97095.57
2018-06-02T19:07:03.574Z,97098.17
2018-06-02T19:11:56.868Z,97095.67
2018-06-02T19:16:50.920Z,97105.39
2018-06-02T19:21:44.243Z,97112.80
2018-06-02T19:26:38.313Z,97120.89
2018-06-02T19:31:31.622Z,97131.20
2018-06-02T19:36:25.686Z,97135.72
2018-06-02T19:41:18.990Z,97147.08
2018-06-02T19:46:13.054Z,97153.93
2018-06-02T19:51:06.347Z,97153.13
2018-06-02T19:56:00.423Z,97163.16
2018-06-02T20:00:53.721Z,97168.05
2018-06-02T20:05:47.797Z,97173.78
2018-06-02T20:10:41.087Z,97175.73
2018-06-02T20:15:34.381Z,97178.33
2018-06-02T20:20:28.427Z,97184.70
2018-06-02T20:25:21.731Z,97187.81
2018-06-02T20:30:15.062Z,97194.63
2018-06-02T20:35:08.355Z,97198.00
2018-06-02T20:40:01.880Z,97208.26
2018-06-02T20:44:55.946Z,97204.83
2018-06-02T20:49:49.252Z,97205.23
2018-06-02T20:54:42.542Z,97211.53
2018-06-02T20:59:36.601Z,97214.06
2018-06-02T21:04:29.889Z,97210.89
2018-06-02T21:09:23.192Z,97209.88
2018-06-02T21:14:17.245Z,97223.55
2018-06-02T21:19:10.516Z,97218.23
2018-06-02T21:24:03.828Z,97223.61
2018-06-02T21:28:57.878Z,97227.48
2018-06-02T21:33:51.224Z,97219.36
2018-06-02T21:38:45.267Z,97230.82
2018-06-02T21:43:38.578Z,97232.70
2018-06-02T21:48:32.645Z,97224.63
2018-06-02T21:53:25.934Z,97223.77
2018-06-02T21:58:19.220Z,97221.80
2018-06-02T22:03:13.271Z,97218.00
2018-06-02T22:08:07.331Z,97218.91
2018-06-02T22:13:00.626Z,97229.11
2018-06-02T22:17:54.686Z,97228.33
2018-06-02T22:22:48.755Z,97228.10
2018-06-02T22:27:42.027Z,97230.12
2018-06-02T22:32:35.324Z,97237.52
2018-06-02T22:37:29.403Z,97235.00
2018-06-02T22:42:22.716Z,97236.22
2018-06-02T22:47:16.776Z,97232.56
2018-06-02T22:52:10.076Z,97233.48
2018-06-02T22:57:04.145Z,97235.47
2018-06-02T23:01:57.429Z,97249.37
2018-06-02T23:06:50.749Z,97232.82
2018-06-02T23:11:44.024Z,97234.16
2018-06-02T23:16:37.311Z,97235.41
2018-06-02T23:21:31.377Z,97236.64
2018-06-02T23:26:25.441Z,97241.30
2018-06-02T23:31:18.742Z,97241.12
2018-06-02T23:36:12.792Z,97232.89
2018-06-02T23:41:06.091Z,97237.91
2018-06-02T23:45:59.402Z,97233.09
2018-06-02T23:50:53.455Z,97237.89
2018-06-02T23:55:46.768Z,97234.23
